Time;durP1;ratioP1;P1;durP2;ratioP2;P2;SDS_P1;SDS_P2;PMS_P1;PMS_P2;Temp;Humidity;BMP_temperature;BMP_pressure;BME280_temperature;BME280_humidity;BME280_pressure;Samples;Min_cycle;Max_cycle;Signal;HPM_P1;HPM_P2
2022/05/18 00:00:53;;;;;;;20.63;2.38;;;40.00;17.10;;;;;;5081537;28;20017;-62
2022/05/18 00:03:24;;;;;;;14.40;2.22;;;40.10;16.60;;;;;;5086298;28;20066;-63
2022/05/18 00:05:51;;;;;;;32.17;3.15;;;40.00;17.10;;;;;;5088675;28;20036;-63
2022/05/18 00:08:18;;;;;;;18.63;2.50;;;40.10;17.90;;;;;;5088457;28;20089;-62
2022/05/18 00:10:46;;;;;;;16.88;2.30;;;40.10;17.40;;;;;;5086851;28;20024;-61
2022/05/18 00:13:13;;;;;;;28.98;4.50;;;40.00;18.00;;;;;;5086648;28;20020;-62
2022/05/18 00:15:40;;;;;;;11.57;2.17;;;39.80;18.50;;;;;;5080768;28;20105;-63
2022/05/18 00:18:07;;;;;;;17.58;2.80;;;39.70;18.20;;;;;;5084322;28;20024;-62
2022/05/18 00:20:34;;;;;;;13.60;2.33;;;39.60;18.90;;;;;;5086704;28;20047;-60
2022/05/18 00:23:02;;;;;;;16.10;2.25;;;39.50;18.40;;;;;;5085168;28;20115;-60
2022/05/18 00:25:32;;;;;;;37.35;4.30;;;39.30;18.80;;;;;;5087645;28;20470;-61
2022/05/18 00:27:58;;;;;;;39.63;4.10;;;39.10;22.80;;;;;;5085076;28;20110;-61
2022/05/18 00:30:26;;;;;;;38.17;3.60;;;38.70;24.40;;;;;;5084932;28;20065;-59
2022/05/18 00:32:53;;;;;;;33.05;3.50;;;38.70;24.30;;;;;;5085834;28;20371;-62
2022/05/18 00:35:20;;;;;;;35.72;4.57;;;38.70;24.20;;;;;;5092114;28;20145;-59
2022/05/18 00:37:47;;;;;;;37.55;3.53;;;38.60;24.60;;;;;;5088747;28;20097;-61
2022/05/18 00:40:16;;;;;;;36.25;5.80;;;38.20;25.10;;;;;;5090039;28;20480;-62
2022/05/18 00:42:43;;;;;;;42.88;4.80;;;38.10;25.30;;;;;;5088809;28;20028;-62
2022/05/18 00:45:10;;;;;;;49.83;4.07;;;38.00;25.40;;;;;;5088389;28;20418;-60
2022/05/18 00:47:36;;;;;;;52.33;4.47;;;37.80;25.40;;;;;;5089494;28;20064;-60
2022/05/18 00:50:08;;;;;;;42.22;4.22;;;37.80;25.80;;;;;;5072785;28;20016;-62
2022/05/18 00:53:13;;;;;;;25.83;3.42;;;37.70;25.70;;;;;;5088752;28;20435;-60
2022/05/18 00:55:43;;;;;;;41.60;4.20;;;37.60;25.80;;;;;;4995412;28;20617;-61
2022/05/18 00:58:21;;;;;;;35.63;3.85;;;37.50;25.70;;;;;;4992063;28;20049;-60
2022/05/18 01:00:50;;;;;;;18.70;3.00;;;37.40;25.80;;;;;;5009047;28;20026;-62
2022/05/18 01:03:35;;;;;;;21.00;3.15;;;37.30;25.90;;;;;;5008522;28;20042;-62
2022/05/18 01:06:29;;;;;;;26.15;3.50;;;37.20;25.90;;;;;;4993121;28;20044;-61
2022/05/18 01:09:01;;;;;;;18.98;2.75;;;37.10;26.00;;;;;;4993453;28;20532;-63
2022/05/18 01:11:28;;;;;;;26.02;3.22;;;37.00;25.90;;;;;;4993014;28;20034;-61
2022/05/18 01:13:54;;;;;;;16.52;3.15;;;36.90;25.70;;;;;;4991809;28;20627;-61
2022/05/18 01:16:22;;;;;;;28.27;4.22;;;36.90;25.90;;;;;;4975778;28;20120;-61
2022/05/18 01:18:50;;;;;;;27.38;3.92;;;36.80;25.80;;;;;;4993105;28;20033;-60
2022/05/18 01:21:17;;;;;;;24.05;3.40;;;36.70;25.80;;;;;;4991834;28;20496;-63
2022/05/18 01:23:59;;;;;;;19.45;3.13;;;36.70;25.70;;;;;;4976024;28;20034;-60
2022/05/18 01:26:53;;;;;;;14.43;3.33;;;36.60;25.70;;;;;;5008438;28;20036;-66
2022/05/18 01:29:24;;;;;;;21.25;3.40;;;36.50;25.70;;;;;;4990840;28;20021;-67
2022/05/18 01:31:53;;;;;;;25.67;3.10;;;36.50;25.80;;;;;;5068342;28;20428;-63
2022/05/18 01:34:22;;;;;;;21.85;3.20;;;36.30;25.70;;;;;;5088204;28;20040;-63
2022/05/18 01:36:49;;;;;;;26.42;3.15;;;36.10;25.40;;;;;;5089444;28;20461;-62
2022/05/18 01:39:56;;;;;;;15.25;3.15;;;36.00;25.40;;;;;;5088274;28;20420;-64
2022/05/18 01:42:54;;;;;;;21.83;3.17;;;35.90;25.40;;;;;;5087876;28;20123;-63
2022/05/18 01:45:20;;;;;;;15.88;2.47;;;36.10;25.00;;;;;;5085825;28;20032;-64
2022/05/18 01:47:48;;;;;;;15.48;3.00;;;36.30;24.80;;;;;;5071850;28;20036;-62
2022/05/18 01:50:19;;;;;;;20.63;2.80;;;36.50;24.70;;;;;;5071679;28;20413;-63
2022/05/18 01:52:45;;;;;;;16.88;2.50;;;36.50;24.90;;;;;;5087577;28;20035;-62
2022/05/18 01:55:15;;;;;;;21.63;2.80;;;36.70;24.50;;;;;;5088756;28;20020;-65
2022/05/18 01:57:42;;;;;;;16.88;3.25;;;36.80;24.40;;;;;;5089003;28;20265;-64
2022/05/18 02:00:09;;;;;;;17.65;3.10;;;36.70;24.40;;;;;;5087391;28;20036;-63
2022/05/18 02:02:35;;;;;;;18.90;2.70;;;36.70;24.40;;;;;;5087571;28;20127;-63
2022/05/18 02:05:02;;;;;;;17.05;3.25;;;36.50;24.20;;;;;;5074222;28;20028;-63
2022/05/18 02:07:28;;;;;;;19.45;2.85;;;36.50;24.40;;;;;;5097892;28;20036;-64
2022/05/18 02:09:54;;;;;;;17.63;2.85;;;36.40;24.50;;;;;;5092669;28;20028;-64
2022/05/18 02:12:21;;;;;;;12.95;2.95;;;36.30;24.90;;;;;;5086190;28;20024;-64
2022/05/18 02:14:48;;;;;;;10.05;2.38;;;36.20;25.00;;;;;;5088055;28;20455;-64
2022/05/18 02:17:14;;;;;;;26.30;3.33;;;36.10;25.20;;;;;;5088116;28;20461;-63
2022/05/18 02:19:40;;;;;;;14.35;2.30;;;35.70;25.50;;;;;;5086834;28;20020;-64
2022/05/18 02:22:07;;;;;;;19.50;3.25;;;35.60;25.10;;;;;;5087836;28;20031;-63
2022/05/18 02:24:33;;;;;;;19.50;2.80;;;35.50;24.90;;;;;;5071034;28;20030;-62
2022/05/18 02:27:00;;;;;;;19.00;3.03;;;35.50;25.20;;;;;;5071209;28;20070;-63
2022/05/18 02:29:26;;;;;;;12.52;3.03;;;35.40;25.40;;;;;;5087062;28;20099;-61
2022/05/18 02:31:53;;;;;;;17.60;3.28;;;35.30;25.70;;;;;;5087865;28;20500;-63
2022/05/18 02:34:20;;;;;;;28.83;3.33;;;35.20;26.70;;;;;;5089125;28;20031;-62
2022/05/18 02:36:48;;;;;;;24.20;3.58;;;35.00;26.60;;;;;;5071812;28;20371;-61
2022/05/18 02:39:15;;;;;;;24.45;2.70;;;35.00;26.90;;;;;;5080831;28;20131;-62
2022/05/18 02:41:42;;;;;;;27.85;3.67;;;34.70;27.10;;;;;;5085921;28;20083;-63
2022/05/18 02:44:08;;;;;;;41.45;5.20;;;34.80;27.10;;;;;;5087295;28;20043;-63
2022/05/18 02:46:35;;;;;;;22.88;3.53;;;34.80;27.20;;;;;;5085998;28;20122;-61
2022/05/18 02:49:01;;;;;;;25.58;3.53;;;34.70;27.30;;;;;;5085991;28;20047;-64
2022/05/18 02:51:28;;;;;;;30.27;3.47;;;34.60;27.30;;;;;;5086366;28;20038;-65
2022/05/18 02:53:54;;;;;;;19.63;3.83;;;34.30;27.40;;;;;;5086665;28;20507;-62
2022/05/18 02:56:24;;;;;;;16.10;3.28;;;34.20;27.40;;;;;;5085783;28;20484;-65
2022/05/18 02:58:53;;;;;;;16.88;3.10;;;34.20;27.20;;;;;;5084754;28;20404;-65
2022/05/18 03:01:24;;;;;;;19.58;2.80;;;34.20;27.50;;;;;;5088405;28;20063;-63
2022/05/18 03:03:52;;;;;;;14.82;2.75;;;34.40;27.80;;;;;;5087348;28;20041;-64
2022/05/18 03:06:22;;;;;;;16.27;2.95;;;34.30;27.50;;;;;;5085984;28;21511;-65
2022/05/18 03:08:49;;;;;;;16.92;2.50;;;34.20;27.10;;;;;;5087289;28;20026;-64
2022/05/18 03:11:16;;;;;;;13.98;2.58;;;34.00;26.50;;;;;;5083275;28;20506;-62
2022/05/18 03:13:42;;;;;;;23.25;2.47;;;34.20;27.10;;;;;;5087845;28;20490;-63
2022/05/18 03:16:09;;;;;;;19.38;2.72;;;34.10;26.70;;;;;;5088043;28;20502;-64
2022/05/18 03:18:36;;;;;;;14.05;2.38;;;34.00;26.80;;;;;;5086871;28;20133;-63
2022/05/18 03:23:49;;;;;;;41.60;6.40;;;33.90;27.60;;;;;;5086830;28;20395;-63
2022/05/18 03:26:20;;;;;;;48.55;9.00;;;33.70;28.60;;;;;;5087577;28;20317;-62
2022/05/18 03:28:49;;;;;;;116.78;23.95;;;33.50;27.90;;;;;;5088241;28;20033;-64
2022/05/18 03:31:16;;;;;;;32.75;5.47;;;33.40;28.20;;;;;;5089465;28;20036;-62
2022/05/18 03:33:43;;;;;;;33.13;6.43;;;33.40;28.00;;;;;;5087247;28;20102;-63
2022/05/18 03:36:12;;;;;;;29.42;4.72;;;33.50;28.80;;;;;;5087300;28;20081;-62
2022/05/18 03:38:40;;;;;;;32.60;4.93;;;33.60;29.10;;;;;;5086385;28;20034;-63
2022/05/18 03:41:07;;;;;;;18.83;3.60;;;33.50;29.10;;;;;;5087083;28;21077;-64
2022/05/18 03:43:35;;;;;;;12.88;3.42;;;33.30;28.90;;;;;;5090470;28;20455;-63
2022/05/18 03:46:02;;;;;;;22.42;3.33;;;33.20;27.30;;;;;;5070096;28;20063;-63
2022/05/18 03:48:29;;;;;;;17.77;3.83;;;33.20;26.40;;;;;;5085294;28;20046;-63
2022/05/18 03:50:58;;;;;;;25.58;3.80;;;33.10;25.40;;;;;;5088810;28;20419;-63
2022/05/18 03:53:25;;;;;;;18.83;3.53;;;33.10;24.80;;;;;;5085399;28;20044;-64
2022/05/18 03:55:52;;;;;;;24.30;4.00;;;33.00;24.70;;;;;;5085900;28;20063;-64
2022/05/18 03:58:18;;;;;;;21.55;3.72;;;32.90;25.60;;;;;;5069692;28;20033;-63
2022/05/18 04:00:47;;;;;;;32.47;4.13;;;32.90;25.90;;;;;;5087105;28;20040;-63
2022/05/18 04:03:15;;;;;;;20.67;4.10;;;32.80;26.40;;;;;;5084588;28;20108;-63
2022/05/18 04:05:41;;;;;;;24.48;4.28;;;32.80;27.30;;;;;;5086488;28;20069;-63
2022/05/18 04:08:10;;;;;;;20.08;3.92;;;32.60;28.90;;;;;;5088903;28;20063;-62
2022/05/18 04:10:38;;;;;;;18.35;4.20;;;32.50;29.70;;;;;;5090986;28;20043;-62
2022/05/18 04:13:07;;;;;;;23.15;3.45;;;32.20;30.20;;;;;;5070913;28;20063;-63
2022/05/18 04:15:34;;;;;;;19.27;3.55;;;32.00;29.90;;;;;;5090431;28;20055;-64
2022/05/18 04:18:00;;;;;;;23.67;3.53;;;31.80;29.40;;;;;;5092699;28;20461;-64
2022/05/18 04:20:27;;;;;;;20.73;3.30;;;31.90;29.50;;;;;;5091490;28;20423;-63
2022/05/18 04:22:54;;;;;;;19.02;3.90;;;31.90;27.60;;;;;;5090130;28;20550;-64
2022/05/18 04:25:23;;;;;;;23.15;3.63;;;31.90;26.20;;;;;;5091487;28;20059;-63
2022/05/18 04:27:50;;;;;;;24.17;3.22;;;32.00;25.20;;;;;;5089790;28;20149;-63
2022/05/18 04:30:24;;;;;;;20.98;4.00;;;31.90;25.00;;;;;;5090931;28;20130;-63
2022/05/18 04:32:52;;;;;;;14.75;3.33;;;31.90;24.10;;;;;;5072546;28;20055;-63
2022/05/18 04:35:21;;;;;;;25.92;3.72;;;31.80;23.50;;;;;;5078658;28;20042;-63
2022/05/18 04:37:48;;;;;;;24.80;3.75;;;31.50;23.20;;;;;;5091736;28;20071;-64
2022/05/18 04:40:15;;;;;;;20.40;3.90;;;31.30;23.30;;;;;;5091018;28;20131;-64
2022/05/18 04:42:41;;;;;;;18.20;3.22;;;31.10;23.30;;;;;;5090400;28;20046;-63
2022/05/18 04:45:13;;;;;;;23.13;3.80;;;31.20;23.50;;;;;;5091602;28;20058;-63
2022/05/18 04:47:39;;;;;;;16.30;3.47;;;31.20;23.90;;;;;;5096759;28;20083;-63
2022/05/18 04:50:07;;;;;;;24.33;3.97;;;31.10;23.00;;;;;;5091912;28;20163;-63
2022/05/18 04:52:33;;;;;;;19.02;3.05;;;31.10;23.00;;;;;;5092305;28;20057;-63
2022/05/18 04:55:00;;;;;;;15.05;3.53;;;30.90;22.50;;;;;;5090275;28;20895;-63
2022/05/18 04:57:26;;;;;;;19.38;2.47;;;31.00;22.60;;;;;;5090334;28;20044;-64
2022/05/18 04:59:52;;;;;;;12.65;2.85;;;31.00;22.30;;;;;;5090444;28;20100;-64
2022/05/18 05:02:19;;;;;;;10.27;2.42;;;30.90;21.50;;;;;;5091406;28;20076;-67
2022/05/18 05:04:45;;;;;;;15.85;2.92;;;30.90;22.00;;;;;;5090796;28;20076;-62
2022/05/18 05:07:12;;;;;;;60.75;41.75;;;30.90;22.30;;;;;;5089555;28;20054;-64
2022/05/18 05:09:38;;;;;;;19.63;4.80;;;30.90;22.30;;;;;;5072792;28;20500;-63
2022/05/18 05:12:06;;;;;;;14.80;3.60;;;30.90;23.00;;;;;;5085326;28;20605;-65
2022/05/18 05:14:34;;;;;;;13.20;3.50;;;30.90;22.60;;;;;;5088158;28;20052;-62
2022/05/18 05:17:01;;;;;;;12.00;3.38;;;30.60;22.00;;;;;;5073221;28;20054;-64
2022/05/18 05:19:28;;;;;;;14.13;2.67;;;30.50;22.00;;;;;;5072103;28;20047;-62
2022/05/18 05:21:54;;;;;;;10.38;2.60;;;30.30;22.10;;;;;;5086008;28;20052;-63
2022/05/18 05:24:21;;;;;;;17.63;2.92;;;30.30;22.30;;;;;;5091197;28;20045;-63
2022/05/18 05:26:49;;;;;;;15.82;3.00;;;30.20;22.30;;;;;;5086626;28;20106;-63
2022/05/18 05:29:17;;;;;;;10.70;3.03;;;30.20;22.40;;;;;;5088177;28;20043;-66
2022/05/18 05:31:43;;;;;;;15.73;2.70;;;30.20;22.50;;;;;;5088264;28;20245;-63
2022/05/18 05:34:10;;;;;;;17.98;3.08;;;30.20;22.70;;;;;;5089149;28;20049;-64
2022/05/18 05:36:36;;;;;;;20.52;2.95;;;30.20;22.60;;;;;;5092897;28;20141;-63
2022/05/18 05:39:03;;;;;;;14.35;3.88;;;30.00;23.00;;;;;;5071449;28;20049;-63
2022/05/18 05:41:29;;;;;;;26.40;4.22;;;30.00;22.80;;;;;;5070672;28;20080;-63
2022/05/18 05:43:57;;;;;;;20.65;4.47;;;29.80;23.10;;;;;;5087395;28;20077;-62
2022/05/18 05:46:27;;;;;;;21.10;4.60;;;29.80;23.30;;;;;;5087686;28;20460;-63
2022/05/18 05:48:55;;;;;;;26.13;5.32;;;29.50;23.40;;;;;;5070804;28;20066;-63
2022/05/18 05:51:25;;;;;;;17.60;4.68;;;29.40;23.70;;;;;;5097868;28;20130;-62
2022/05/18 05:53:53;;;;;;;15.10;3.17;;;29.40;23.80;;;;;;5086960;28;20499;-63
2022/05/18 05:56:21;;;;;;;11.40;2.55;;;29.30;24.20;;;;;;5086234;28;20059;-63
2022/05/18 05:58:50;;;;;;;18.17;3.10;;;29.20;24.40;;;;;;5086417;28;20054;-63
2022/05/18 06:01:18;;;;;;;24.27;3.92;;;29.10;28.70;;;;;;5086152;28;20085;-64
2022/05/18 06:03:45;;;;;;;28.92;4.47;;;28.90;33.90;;;;;;5080161;28;20074;-62
2022/05/18 06:06:12;;;;;;;27.25;4.57;;;28.70;37.80;;;;;;5088980;28;20068;-62
2022/05/18 06:08:39;;;;;;;38.08;5.72;;;28.60;39.40;;;;;;5087800;28;20495;-63
2022/05/18 06:11:08;;;;;;;20.55;4.13;;;28.50;41.60;;;;;;5070258;28;20144;-63
2022/05/18 06:13:34;;;;;;;27.88;4.65;;;28.50;42.10;;;;;;5068952;28;20132;-63
2022/05/18 06:16:03;;;;;;;28.08;5.18;;;28.20;44.90;;;;;;5069968;28;20422;-63
2022/05/18 06:18:30;;;;;;;14.52;4.07;;;28.00;46.90;;;;;;5086981;28;20165;-61
2022/05/18 06:20:57;;;;;;;16.35;4.03;;;28.10;47.50;;;;;;5087559;28;20067;-63
2022/05/18 06:23:24;;;;;;;17.90;4.72;;;28.00;47.70;;;;;;5085902;28;20438;-63
2022/05/18 06:25:50;;;;;;;19.38;4.03;;;27.90;48.30;;;;;;5086800;28;20535;-64
2022/05/18 06:28:17;;;;;;;18.13;4.25;;;27.80;48.40;;;;;;5070936;28;20079;-63
2022/05/18 06:30:44;;;;;;;25.92;3.92;;;27.80;47.90;;;;;;5084728;28;20060;-62
2022/05/18 06:33:11;;;;;;;13.32;3.67;;;27.70;46.30;;;;;;5084641;28;20583;-64
2022/05/18 06:35:38;;;;;;;14.85;4.00;;;27.70;45.90;;;;;;5087481;28;20148;-65
2022/05/18 06:38:13;;;;;;;19.00;4.03;;;27.60;46.30;;;;;;5087606;28;20060;-62
2022/05/18 06:43:25;;;;;;;11.23;3.67;;;27.50;45.30;;;;;;5087640;28;20097;-63
2022/05/18 06:45:52;;;;;;;9.57;3.40;;;27.40;45.00;;;;;;5087390;28;20090;-65
2022/05/18 06:48:19;;;;;;;15.77;4.00;;;27.40;45.10;;;;;;5086076;28;20141;-64
2022/05/18 06:50:45;;;;;;;14.13;3.72;;;27.50;45.70;;;;;;5086694;28;20077;-63
2022/05/18 06:53:12;;;;;;;15.82;4.03;;;27.40;45.10;;;;;;5087213;28;20132;-65
2022/05/18 06:55:38;;;;;;;19.67;3.42;;;27.30;44.90;;;;;;5086334;28;20059;-62
2022/05/18 06:58:05;;;;;;;16.08;3.55;;;27.30;45.10;;;;;;5085624;28;20109;-63
2022/05/18 07:00:31;;;;;;;13.23;3.20;;;27.30;45.30;;;;;;5070790;28;20075;-63
2022/05/18 07:02:58;;;;;;;17.95;4.20;;;27.30;45.10;;;;;;5089864;28;20063;-63
2022/05/18 07:05:24;;;;;;;14.75;3.85;;;27.30;45.00;;;;;;5088265;28;20531;-63
2022/05/18 07:07:51;;;;;;;14.35;3.65;;;27.30;45.20;;;;;;5087515;28;20076;-64
2022/05/18 07:10:17;;;;;;;16.60;4.60;;;27.40;45.30;;;;;;5070750;28;20070;-63
2022/05/18 07:12:43;;;;;;;19.50;4.00;;;27.40;45.40;;;;;;5085592;28;20469;-63
2022/05/18 07:15:10;;;;;;;18.55;5.03;;;27.30;45.60;;;;;;5086705;28;20448;-62
2022/05/18 07:17:37;;;;;;;16.98;4.32;;;27.30;45.60;;;;;;5085465;28;20076;-62
2022/05/18 07:20:04;;;;;;;24.17;5.30;;;27.30;45.90;;;;;;5087832;28;20214;-62
2022/05/18 07:22:30;;;;;;;22.48;4.97;;;27.30;46.30;;;;;;5087211;28;20168;-64
2022/05/18 07:24:57;;;;;;;16.05;4.45;;;27.30;46.60;;;;;;5086474;28;20056;-64
2022/05/18 07:27:23;;;;;;;21.33;4.97;;;27.20;46.80;;;;;;5085925;28;20066;-62
2022/05/18 07:29:50;;;;;;;15.68;4.55;;;27.30;47.00;;;;;;5085302;28;20063;-65
2022/05/18 07:32:16;;;;;;;25.33;4.93;;;27.20;47.10;;;;;;5085989;28;20138;-60
2022/05/18 07:34:47;;;;;;;18.88;5.57;;;27.00;47.40;;;;;;5087823;28;20072;-62
2022/05/18 07:37:15;;;;;;;24.02;5.53;;;27.00;47.70;;;;;;5086182;28;20082;-65
2022/05/18 07:39:42;;;;;;;27.55;6.07;;;27.10;47.70;;;;;;5087398;28;20056;-63
2022/05/18 07:42:09;;;;;;;22.25;4.90;;;27.10;47.80;;;;;;5086081;28;20054;-63
2022/05/18 07:44:36;;;;;;;25.15;5.15;;;27.10;47.70;;;;;;5069395;28;20119;-63
2022/05/18 07:47:05;;;;;;;19.95;4.60;;;27.00;48.00;;;;;;5085884;28;20202;-63
2022/05/18 07:49:39;;;;;;;30.33;4.60;;;27.00;48.50;;;;;;5070980;28;20081;-63
2022/05/18 07:52:06;;;;;;;29.85;4.53;;;27.00;48.80;;;;;;5086654;28;20071;-61
2022/05/18 07:54:33;;;;;;;24.73;4.78;;;26.90;48.70;;;;;;5085048;28;20061;-63
2022/05/18 07:57:00;;;;;;;23.50;4.53;;;26.90;48.80;;;;;;5085903;28;20087;-62
2022/05/18 07:59:26;;;;;;;21.45;4.43;;;26.80;49.10;;;;;;5068020;28;20583;-65
2022/05/18 08:01:53;;;;;;;18.20;4.65;;;26.70;49.50;;;;;;5085622;28;20209;-62
2022/05/18 08:04:19;;;;;;;20.65;4.68;;;26.60;49.90;;;;;;5087114;28;20065;-62
2022/05/18 08:06:46;;;;;;;20.65;4.30;;;26.50;50.30;;;;;;5085981;28;20071;-63
2022/05/18 08:09:12;;;;;;;22.30;5.32;;;26.50;50.30;;;;;;5086655;28;20077;-63
2022/05/18 08:17:08;;;;;;;24.48;5.68;;;26.40;50.40;;;;;;5087826;28;20092;-62
2022/05/18 08:19:35;;;;;;;28.40;5.03;;;26.40;50.30;;;;;;5083834;28;20438;-63
2022/05/18 08:22:01;;;;;;;28.20;5.90;;;26.30;50.50;;;;;;5087063;28;20073;-64
2022/05/18 08:24:27;;;;;;;24.67;6.00;;;26.20;51.00;;;;;;5088266;28;20070;-62
2022/05/18 08:26:54;;;;;;;25.02;5.57;;;26.00;51.40;;;;;;5085671;28;20156;-62
2022/05/18 08:29:22;;;;;;;31.85;6.63;;;26.20;51.70;;;;;;5084941;28;20071;-63
2022/05/18 08:31:49;;;;;;;34.88;6.50;;;26.10;51.70;;;;;;5085538;28;20076;-63
2022/05/18 08:34:15;;;;;;;30.10;6.20;;;26.20;51.60;;;;;;5084434;28;20088;-61
2022/05/18 08:36:42;;;;;;;23.40;5.85;;;26.20;52.00;;;;;;5086081;28;20094;-63
2022/05/18 08:39:09;;;;;;;22.70;6.35;;;26.10;52.10;;;;;;5068111;28;20439;-62
2022/05/18 08:41:47;;;;;;;34.75;6.00;;;26.00;52.50;;;;;;5082113;28;20079;-62
2022/05/18 08:44:26;;;;;;;34.17;6.18;;;25.90;52.90;;;;;;5086200;28;20067;-61
2022/05/18 08:47:12;;;;;;;29.88;5.38;;;25.90;53.30;;;;;;5087101;28;20103;-62
2022/05/18 08:49:40;;;;;;;31.73;5.32;;;25.90;53.70;;;;;;5084727;28;20506;-62
2022/05/18 08:52:19;;;;;;;25.95;5.97;;;25.80;54.00;;;;;;5085046;28;20084;-65
2022/05/18 08:54:56;;;;;;;32.00;5.85;;;25.70;54.50;;;;;;5089134;28;20521;-63
2022/05/18 08:57:29;;;;;;;22.63;5.47;;;25.60;55.00;;;;;;5088097;28;20078;-62
2022/05/18 09:00:00;;;;;;;29.42;5.82;;;25.60;55.60;;;;;;5088523;28;20070;-61
2022/05/18 09:02:32;;;;;;;26.80;6.47;;;25.60;56.20;;;;;;5071087;28;20602;-62
2022/05/18 09:05:03;;;;;;;25.40;6.07;;;25.50;56.40;;;;;;5072039;28;20112;-61
2022/05/18 09:07:38;;;;;;;18.15;4.80;;;25.40;57.10;;;;;;5074312;28;20115;-62
2022/05/18 09:10:23;;;;;;;26.55;4.75;;;25.40;57.90;;;;;;5072864;28;20524;-62
2022/05/18 09:12:50;;;;;;;19.35;5.15;;;25.40;58.30;;;;;;5088281;28;20063;-59
2022/05/18 09:15:20;;;;;;;23.17;5.43;;;25.30;58.60;;;;;;5088819;28;20115;-62
2022/05/18 09:17:54;;;;;;;19.67;4.55;;;25.40;59.10;;;;;;5055746;28;20086;-64
2022/05/18 09:20:47;;;;;;;25.40;5.00;;;25.20;59.40;;;;;;5088628;28;20551;-63
2022/05/18 09:24:10;;;;;;;24.55;4.97;;;25.10;59.80;;;;;;5089322;28;20094;-63
2022/05/18 09:26:47;;;;;;;23.05;4.68;;;25.10;60.80;;;;;;5031014;28;20485;-63
2022/05/18 09:29:34;;;;;;;28.70;4.28;;;25.10;61.30;;;;;;5035671;28;20211;-64
2022/05/18 09:32:16;;;;;;;19.58;4.68;;;25.10;62.10;;;;;;5036403;28;20070;-62
2022/05/18 09:35:00;;;;;;;19.65;4.70;;;25.00;63.10;;;;;;5015018;28;20081;-61
2022/05/18 09:37:36;;;;;;;22.27;5.00;;;25.00;63.70;;;;;;5036079;28;20083;-63
2022/05/18 09:40:10;;;;;;;27.73;5.18;;;25.00;64.50;;;;;;5007369;28;20070;-62
2022/05/18 09:42:43;;;;;;;23.42;4.80;;;25.10;64.50;;;;;;5015942;28;20087;-63
2022/05/18 09:45:15;;;;;;;32.15;5.10;;;25.10;64.70;;;;;;5004510;28;20160;-63
2022/05/18 09:47:54;;;;;;;24.98;5.13;;;25.00;65.20;;;;;;5035085;28;20146;-62
2022/05/18 09:50:21;;;;;;;27.25;5.40;;;24.90;65.50;;;;;;5020396;28;20094;-64
2022/05/18 09:52:48;;;;;;;27.40;5.45;;;25.00;66.30;;;;;;5020378;28;20098;-63
2022/05/18 09:55:21;;;;;;;27.90;5.15;;;24.90;66.30;;;;;;5017110;28;20130;-62
2022/05/18 09:58:13;;;;;;;26.70;5.60;;;25.00;66.60;;;;;;5002722;28;20085;-62
2022/05/18 10:00:41;;;;;;;24.90;5.63;;;24.90;66.60;;;;;;5022283;28;20086;-62
2022/05/18 10:09:13;;;;;;;24.88;5.90;;;24.90;67.50;;;;;;5087704;28;20118;-63
2022/05/18 10:11:40;;;;;;;25.17;6.30;;;24.90;67.30;;;;;;5087951;28;20514;-63
2022/05/18 10:14:12;;;;;;;27.60;6.35;;;24.90;67.20;;;;;;5086519;28;20072;-62
2022/05/18 10:16:44;;;;;;;23.00;5.68;;;24.80;66.80;;;;;;5085828;28;20086;-65
2022/05/18 10:19:48;;;;;;;21.20;5.28;;;24.70;66.90;;;;;;5085254;28;20073;-64
2022/05/18 10:22:25;;;;;;;28.95;5.53;;;24.70;66.90;;;;;;5072226;28;20549;-63
2022/05/18 10:24:57;;;;;;;23.35;5.38;;;24.80;67.30;;;;;;5085895;28;20076;-63
2022/05/18 10:27:34;;;;;;;25.70;4.90;;;24.80;67.20;;;;;;5086686;28;20072;-64
2022/05/18 10:30:16;;;;;;;20.23;4.70;;;24.80;66.80;;;;;;5087191;28;20519;-63
2022/05/18 10:33:02;;;;;;;22.73;5.03;;;24.80;66.50;;;;;;5087294;28;20090;-63
2022/05/18 10:36:07;;;;;;;20.70;4.95;;;24.80;66.70;;;;;;5069837;28;20112;-62
2022/05/18 10:38:38;;;;;;;17.42;4.82;;;24.60;66.90;;;;;;4988999;28;20448;-62
2022/05/18 10:41:05;;;;;;;20.45;4.93;;;24.60;67.20;;;;;;4979039;28;20067;-62
2022/05/18 10:43:56;;;;;;;23.05;6.03;;;24.60;67.50;;;;;;4997936;28;20084;-64
2022/05/18 10:46:31;;;;;;;22.40;6.10;;;24.60;67.80;;;;;;4980862;28;20111;-62
2022/05/18 10:48:58;;;;;;;22.48;6.45;;;24.60;68.20;;;;;;4987823;28;20094;-62
2022/05/18 10:51:32;;;;;;;26.27;7.10;;;24.60;68.00;;;;;;4982862;28;20087;-63
2022/05/18 10:54:27;;;;;;;26.73;7.00;;;24.70;68.60;;;;;;4994576;28;20103;-63
2022/05/18 10:57:10;;;;;;;29.70;7.30;;;24.60;68.60;;;;;;4991987;28;20604;-62
2022/05/18 11:00:20;;;;;;;29.48;7.45;;;24.50;68.90;;;;;;4983056;28;20561;-63
2022/05/18 11:02:58;;;;;;;33.72;8.70;;;24.50;69.60;;;;;;4960963;28;20597;-62
2022/05/18 11:05:33;;;;;;;33.92;8.35;;;24.50;69.80;;;;;;4987913;28;20565;-62
2022/05/18 11:07:59;;;;;;;36.70;7.97;;;24.40;70.10;;;;;;4989069;28;20465;-62
2022/05/18 11:10:47;;;;;;;29.27;7.18;;;24.30;70.40;;;;;;4982939;28;20093;-62
2022/05/18 11:13:28;;;;;;;39.17;9.30;;;24.40;70.90;;;;;;4968654;28;20111;-62
2022/05/18 11:16:25;;;;;;;38.83;9.98;;;24.20;71.40;;;;;;5080852;28;20071;-62
2022/05/18 11:19:03;;;;;;;35.13;8.43;;;24.20;71.70;;;;;;5084825;28;20092;-63
2022/05/18 11:21:33;;;;;;;38.10;9.07;;;24.20;71.40;;;;;;5084490;28;20070;-62
2022/05/18 11:24:06;;;;;;;40.22;11.13;;;24.20;71.40;;;;;;5086692;28;20072;-62
2022/05/18 11:26:32;;;;;;;41.35;10.80;;;24.00;71.70;;;;;;5086481;28;20066;-62
2022/05/18 11:29:47;;;;;;;45.20;11.15;;;23.90;71.90;;;;;;5085519;28;20433;-63
2022/05/18 11:32:19;;;;;;;56.65;18.38;;;23.90;72.30;;;;;;5085933;28;20101;-64
2022/05/18 11:35:04;;;;;;;62.05;27.08;;;23.80;72.70;;;;;;5087270;28;20069;-64
2022/05/18 11:38:06;;;;;;;67.25;27.90;;;23.80;73.00;;;;;;5082238;28;20082;-63
2022/05/18 11:40:40;;;;;;;49.92;21.08;;;23.80;73.00;;;;;;5086458;28;20530;-65
2022/05/18 11:43:30;;;;;;;48.75;14.13;;;23.80;72.90;;;;;;5085887;28;20123;-65
2022/05/18 11:46:17;;;;;;;31.00;11.23;;;23.80;73.30;;;;;;5088741;28;20544;-64
2022/05/18 11:49:10;;;;;;;35.67;9.85;;;23.80;72.90;;;;;;5081070;28;20547;-64
2022/05/18 11:51:49;;;;;;;33.60;10.77;;;23.80;72.70;;;;;;5083800;28;20157;-64
2022/05/18 11:55:07;;;;;;;42.38;11.93;;;23.70;72.90;;;;;;5083839;28;20074;-64
2022/05/18 11:58:17;;;;;;;39.13;12.20;;;23.60;73.30;;;;;;5079126;28;20181;-63
2022/05/18 12:01:11;;;;;;;41.47;10.80;;;23.60;73.80;;;;;;5088384;28;20082;-63
2022/05/18 12:03:56;;;;;;;30.92;9.93;;;23.60;74.20;;;;;;5085046;28;20065;-63
2022/05/18 12:06:37;;;;;;;36.10;9.45;;;23.50;74.50;;;;;;5084588;28;20128;-64
2022/05/18 12:09:06;;;;;;;36.65;8.30;;;23.50;75.00;;;;;;5084286;28;20070;-63
2022/05/18 12:11:59;;;;;;;32.55;6.90;;;23.50;75.40;;;;;;5085797;28;20091;-64
2022/05/18 12:14:45;;;;;;;25.92;6.38;;;23.30;75.70;;;;;;5087616;28;20081;-64
2022/05/18 12:17:44;;;;;;;24.52;6.43;;;23.30;76.00;;;;;;5070304;28;20101;-63
2022/05/18 12:20:17;;;;;;;29.27;5.72;;;23.30;76.00;;;;;;5071978;28;20549;-64
2022/05/18 12:22:50;;;;;;;31.65;6.35;;;23.30;76.10;;;;;;5085649;28;20447;-61
2022/05/18 12:25:20;;;;;;;29.73;5.63;;;23.30;76.20;;;;;;5069424;28;20173;-64
2022/05/18 12:27:48;;;;;;;27.85;6.65;;;23.30;76.10;;;;;;5084076;28;20102;-62
2022/05/18 12:30:18;;;;;;;23.52;6.35;;;23.30;76.20;;;;;;5073732;28;20588;-61
2022/05/18 12:32:46;;;;;;;29.98;6.32;;;23.30;76.30;;;;;;5087445;28;20071;-60
2022/05/18 12:35:15;;;;;;;32.22;6.20;;;23.30;76.20;;;;;;5074081;28;20132;-63
2022/05/18 12:38:02;;;;;;;22.88;6.35;;;23.30;76.50;;;;;;5087346;28;20086;-62
2022/05/18 12:40:54;;;;;;;29.55;7.45;;;23.30;76.40;;;;;;5047887;28;20079;-63
2022/05/18 12:43:39;;;;;;;27.17;6.75;;;23.30;76.50;;;;;;5089309;28;20130;-63
2022/05/18 12:46:15;;;;;;;26.88;6.65;;;23.30;76.70;;;;;;5088866;28;20115;-63
2022/05/18 12:48:47;;;;;;;33.50;7.45;;;23.30;76.40;;;;;;5088246;28;20099;-63
2022/05/18 12:51:30;;;;;;;29.25;6.80;;;23.20;77.00;;;;;;5084480;28;20129;-63
2022/05/18 12:54:18;;;;;;;38.67;8.00;;;23.10;77.20;;;;;;5088133;28;20175;-63
2022/05/18 12:57:06;;;;;;;31.40;7.75;;;23.10;77.60;;;;;;5088975;28;20083;-64
2022/05/18 13:00:08;;;;;;;37.72;8.25;;;23.10;77.70;;;;;;5086916;28;20589;-64
2022/05/18 13:02:37;;;;;;;44.25;8.38;;;23.10;77.60;;;;;;5039932;28;20085;-64
2022/05/18 13:05:26;;;;;;;35.58;8.27;;;23.10;78.00;;;;;;5090186;28;20438;-63
2022/05/18 13:08:16;;;;;;;32.33;8.02;;;23.10;78.00;;;;;;5089935;28;20090;-63
2022/05/18 13:11:14;;;;;;;37.53;8.73;;;23.10;78.20;;;;;;5087624;28;20071;-64
2022/05/18 13:14:06;;;;;;;32.15;7.82;;;23.10;78.30;;;;;;5087784;28;20087;-62
2022/05/18 13:16:38;;;;;;;40.35;9.02;;;23.10;78.70;;;;;;5072018;28;20080;-62
2022/05/18 13:19:14;;;;;;;36.17;7.95;;;23.00;79.10;;;;;;5089163;28;20071;-63